sensor_id;sensor_type;location;lat;lon;timestamp;pressure;altitude;pressure_sealevel;temperature;humidity
52927;BME280;40783;49.710;8.842;2023-04-27T00:00:57;99253.81;;;5.52;95.08
52927;BME280;40783;49.710;8.842;2023-04-27T00:03:22;99251.91;;;5.54;94.80
52927;BME280;40783;49.710;8.842;2023-04-27T00:05:47;99255.03;;;5.59;94.67
52927;BME280;40783;49.710;8.842;2023-04-27T00:08:13;99256.97;;;5.57;94.86
52927;BME280;40783;49.710;8.842;2023-04-27T00:10:38;99256.50;;;5.40;95.87
52927;BME280;40783;49.710;8.842;2023-04-27T00:13:06;99256.00;;;5.46;95.50
52927;BME280;40783;49.710;8.842;2023-04-27T00:15:31;99248.78;;;5.37;95.63
52927;BME280;40783;49.710;8.842;2023-04-27T00:17:56;99248.81;;;5.26;96.05
52927;BME280;40783;49.710;8.842;2023-04-27T00:20:21;99251.91;;;5.31;95.68
52927;BME280;40783;49.710;8.842;2023-04-27T00:22:49;99248.81;;;5.26;95.58
52927;BME280;40783;49.710;8.842;2023-04-27T00:25:17;99239.50;;;5.20;95.48
52927;BME280;40783;49.710;8.842;2023-04-27T00:27:45;99249.06;;;5.23;96.24
52927;BME280;40783;49.710;8.842;2023-04-27T00:30:10;99240.84;;;5.14;97.15
52927;BME280;40783;49.710;8.842;2023-04-27T00:32:36;99230.50;;;5.11;97.12
52927;BME280;40783;49.710;8.842;2023-04-27T00:35:01;99244.22;;;5.16;96.90
52927;BME280;40783;49.710;8.842;2023-04-27T00:37:26;99240.84;;;5.14;96.38
52927;BME280;40783;49.710;8.842;2023-04-27T00:39:51;99234.34;;;5.07;97.30
52927;BME280;40783;49.710;8.842;2023-04-27T00:42:17;99238.44;;;5.11;96.61
52927;BME280;40783;49.710;8.842;2023-04-27T00:44:45;99228.56;;;5.02;96.93
52927;BME280;40783;49.710;8.842;2023-04-27T00:47:10;99229.28;;;4.93;97.66
52927;BME280;40783;49.710;8.842;2023-04-27T00:49:36;99223.50;;;4.99;97.39
52927;BME280;40783;49.710;8.842;2023-04-27T00:52:02;99229.03;;;4.96;97.94
52927;BME280;40783;49.710;8.842;2023-04-27T00:54:28;99230.00;;;4.95;98.01
52927;BME280;40783;49.710;8.842;2023-04-27T00:56:53;99231.81;;;4.94;97.90
52927;BME280;40783;49.710;8.842;2023-04-27T00:59:22;99234.47;;;4.94;96.98
52927;BME280;40783;49.710;8.842;2023-04-27T01:01:50;99233.38;;;4.97;96.76
52927;BME280;40783;49.710;8.842;2023-04-27T01:04:18;99229.78;;;4.98;96.34
52927;BME280;40783;49.710;8.842;2023-04-27T01:06:44;99231.34;;;4.89;96.68
52927;BME280;40783;49.710;8.842;2023-04-27T01:09:09;99240.72;;;4.82;97.30
52927;BME280;40783;49.710;8.842;2023-04-27T01:11:35;99230.00;;;4.72;97.68
52927;BME280;40783;49.710;8.842;2023-04-27T01:14:05;99233.63;;;4.71;97.86
52927;BME280;40783;49.710;8.842;2023-04-27T01:16:33;99229.16;;;4.71;97.27
52927;BME280;40783;49.710;8.842;2023-04-27T01:18:59;99233.63;;;4.71;97.55
52927;BME280;40783;49.710;8.842;2023-04-27T01:21:25;99236.75;;;4.76;97.34
52927;BME280;40783;49.710;8.842;2023-04-27T01:23:51;99237.00;;;4.73;97.49
52927;BME280;40783;49.710;8.842;2023-04-27T01:26:19;99238.69;;;4.74;96.78
52927;BME280;40783;49.710;8.842;2023-04-27T01:28:47;99249.75;;;4.68;97.14
52927;BME280;40783;49.710;8.842;2023-04-27T01:31:12;99239.38;;;4.65;97.83
52927;BME280;40783;49.710;8.842;2023-04-27T01:33:39;99246.59;;;4.63;97.88
52927;BME280;40783;49.710;8.842;2023-04-27T01:36:10;99239.84;;;4.58;97.82
52927;BME280;40783;49.710;8.842;2023-04-27T01:38:38;99242.59;;;4.57;98.01
52927;BME280;40783;49.710;8.842;2023-04-27T01:41:08;99233.94;;;4.55;97.92
52927;BME280;40783;49.710;8.842;2023-04-27T01:43:36;99238.63;;;4.51;98.22
52927;BME280;40783;49.710;8.842;2023-04-27T01:46:07;99235.03;;;4.52;98.70
52927;BME280;40783;49.710;8.842;2023-04-27T01:48:34;99234.75;;;4.44;97.96
52927;BME280;40783;49.710;8.842;2023-04-27T01:50:59;99232.81;;;4.35;99.06
52927;BME280;40783;49.710;8.842;2023-04-27T01:53:25;99237.50;;;4.31;99.62
52927;BME280;40783;49.710;8.842;2023-04-27T01:55:50;99234.72;;;4.33;99.04
52927;BME280;40783;49.710;8.842;2023-04-27T01:58:15;99242.56;;;4.34;99.16
52927;BME280;40783;49.710;8.842;2023-04-27T02:00:43;99247.00;;;4.34;99.04
52927;BME280;40783;49.710;8.842;2023-04-27T02:03:11;99241.47;;;4.37;98.61
52927;BME280;40783;49.710;8.842;2023-04-27T02:05:36;99250.84;;;4.29;99.01
52927;BME280;40783;49.710;8.842;2023-04-27T02:08:04;99245.03;;;4.24;99.18
52927;BME280;40783;49.710;8.842;2023-04-27T02:10:30;99248.78;;;4.22;98.74
52927;BME280;40783;49.710;8.842;2023-04-27T02:12:55;99244.81;;;4.16;99.31
52927;BME280;40783;49.710;8.842;2023-04-27T02:15:21;99244.53;;;4.08;100.00
52927;BME280;40783;49.710;8.842;2023-04-27T02:17:46;99254.63;;;4.03;100.00
52927;BME280;40783;49.710;8.842;2023-04-27T02:20:12;99253.97;;;3.99;100.00
52927;BME280;40783;49.710;8.842;2023-04-27T02:22:42;99259.44;;;4.09;100.00
52927;BME280;40783;49.710;8.842;2023-04-27T02:25:09;99255.44;;;4.03;99.51
52927;BME280;40783;49.710;8.842;2023-04-27T03:21:25;99265.63;;;3.48;100.00
52927;BME280;40783;49.710;8.842;2023-04-27T03:23:53;99254.59;;;3.54;100.00
52927;BME280;40783;49.710;8.842;2023-04-27T03:26:22;99260.50;;;3.58;100.00
52927;BME280;40783;49.710;8.842;2023-04-27T03:28:47;99265.84;;;3.45;100.00
52927;BME280;40783;49.710;8.842;2023-04-27T03:31:13;99262.59;;;3.41;100.00
52927;BME280;40783;49.710;8.842;2023-04-27T03:33:40;99254.66;;;3.41;100.00
52927;BME280;40783;49.710;8.842;2023-04-27T03:36:06;99264.38;;;3.40;100.00
52927;BME280;40783;49.710;8.842;2023-04-27T03:38:33;99264.81;;;3.34;100.00
52927;BME280;40783;49.710;8.842;2023-04-27T03:40:58;99272.22;;;3.29;100.00
52927;BME280;40783;49.710;8.842;2023-04-27T03:43:24;99269.69;;;3.28;100.00
52927;BME280;40783;49.710;8.842;2023-04-27T03:45:50;99260.38;;;3.22;100.00
52927;BME280;40783;49.710;8.842;2023-04-27T03:48:16;99260.38;;;3.22;100.00
52927;BME280;40783;49.710;8.842;2023-04-27T03:50:42;99254.25;;;3.21;100.00
52927;BME280;40783;49.710;8.842;2023-04-27T03:53:07;99245.78;;;3.29;100.00
52927;BME280;40783;49.710;8.842;2023-04-27T03:55:36;99247.69;;;3.27;100.00
52927;BME280;40783;49.710;8.842;2023-04-27T03:58:02;99240.94;;;3.23;100.00
52927;BME280;40783;49.710;8.842;2023-04-27T04:00:27;99254.88;;;3.25;100.00
52927;BME280;40783;49.710;8.842;2023-04-27T04:02:54;99257.09;;;3.31;100.00
52927;BME280;40783;49.710;8.842;2023-04-27T04:05:20;99249.88;;;3.33;100.00
52927;BME280;40783;49.710;8.842;2023-04-27T04:07:45;99260.03;;;3.39;100.00
52927;BME280;40783;49.710;8.842;2023-04-27T04:10:13;99259.28;;;3.37;100.00
52927;BME280;40783;49.710;8.842;2023-04-27T04:12:38;99255.53;;;3.29;100.00
52927;BME280;40783;49.710;8.842;2023-04-27T04:15:04;99257.59;;;3.36;100.00
52927;BME280;40783;49.710;8.842;2023-04-27T04:17:29;99268.03;;;3.51;100.00
52927;BME280;40783;49.710;8.842;2023-04-27T04:19:55;99261.16;;;3.61;100.00
52927;BME280;40783;49.710;8.842;2023-04-27T04:22:22;99275.28;;;3.73;100.00
52927;BME280;40783;49.710;8.842;2023-04-27T04:24:48;99266.88;;;3.79;99.76
52927;BME280;40783;49.710;8.842;2023-04-27T04:27:13;99272.28;;;3.78;99.64
52927;BME280;40783;49.710;8.842;2023-04-27T04:29:38;99268.44;;;3.82;100.00
52927;BME280;40783;49.710;8.842;2023-04-27T04:32:04;99266.75;;;3.81;100.00
52927;BME280;40783;49.710;8.842;2023-04-27T04:34:34;99254.91;;;3.86;100.00
52927;BME280;40783;49.710;8.842;2023-04-27T04:37:00;99259.56;;;3.83;100.00
52927;BME280;40783;49.710;8.842;2023-04-27T04:39:32;99254.91;;;3.86;100.00
52927;BME280;40783;49.710;8.842;2023-04-27T04:41:57;99250.22;;;3.90;100.00
52927;BME280;40783;49.710;8.842;2023-04-27T04:44:22;99258.22;;;4.01;100.00
52927;BME280;40783;49.710;8.842;2023-04-27T04:46:50;99252.69;;;4.05;99.36
52927;BME280;40783;49.710;8.842;2023-04-27T04:49:16;99255.22;;;4.06;99.40
52927;BME280;40783;49.710;8.842;2023-04-27T04:51:44;99259.44;;;4.09;99.70
52927;BME280;40783;49.710;8.842;2023-04-27T04:54:10;99254.72;;;3.77;100.00
52927;BME280;40783;49.710;8.842;2023-04-27T04:56:35;99250.63;;;3.97;100.00
52927;BME280;40783;49.710;8.842;2023-04-27T04:59:01;99259.19;;;4.00;100.00
52927;BME280;40783;49.710;8.842;2023-04-27T05:01:30;99255.44;;;4.03;100.00
52927;BME280;40783;49.710;8.842;2023-04-27T05:03:58;99259.00;;;4.15;100.00
52927;BME280;40783;49.710;8.842;2023-04-27T05:06:23;99257.09;;;4.17;100.00
52927;BME280;40783;49.710;8.842;2023-04-27T05:08:51;99267.44;;;4.20;100.00
52927;BME280;40783;49.710;8.842;2023-04-27T05:11:17;99259.41;;;4.33;100.00
52927;BME280;40783;49.710;8.842;2023-04-27T05:13:44;99263.75;;;4.34;100.00
52927;BME280;40783;49.710;8.842;2023-04-27T05:16:11;99257.19;;;4.51;99.45
52927;BME280;40783;49.710;8.842;2023-04-27T05:18:36;99259.22;;;4.59;99.14
52927;BME280;40783;49.710;8.842;2023-04-27T05:21:01;99256.97;;;4.66;98.95
52927;BME280;40783;49.710;8.842;2023-04-27T05:23:29;99260.34;;;4.68;98.65
52927;BME280;40783;49.710;8.842;2023-04-27T05:25:54;99259.38;;;4.80;97.41
52927;BME280;40783;49.710;8.842;2023-04-27T05:28:19;99268.06;;;4.82;98.41
52927;BME280;40783;49.710;8.842;2023-04-27T05:30:45;99263.97;;;4.89;97.06
52927;BME280;40783;49.710;8.842;2023-04-27T05:33:10;99264.94;;;5.00;98.23
52927;BME280;40783;49.710;8.842;2023-04-27T05:35:38;99259.66;;;5.00;99.06
52927;BME280;40783;49.710;8.842;2023-04-27T05:38:03;99262.53;;;5.08;98.68
52927;BME280;40783;49.710;8.842;2023-04-27T05:40:31;99269.78;;;5.17;98.50
52927;BME280;40783;49.710;8.842;2023-04-27T05:42:58;99275.31;;;5.26;98.40
52927;BME280;40783;49.710;8.842;2023-04-27T05:45:29;99277.72;;;5.40;98.07
52927;BME280;40783;49.710;8.842;2023-04-27T05:47:54;99276.00;;;5.50;97.12
52927;BME280;40783;49.710;8.842;2023-04-27T05:50:20;99274.66;;;5.68;96.02
52927;BME280;40783;49.710;8.842;2023-04-27T05:52:47;99276.91;;;5.84;97.06
52927;BME280;40783;49.710;8.842;2023-04-27T05:55:15;99281.47;;;5.93;94.32
52927;BME280;40783;49.710;8.842;2023-04-27T05:57:40;99284.59;;;6.09;94.38
52927;BME280;40783;49.710;8.842;2023-04-27T06:00:06;99285.91;;;6.36;93.14
52927;BME280;40783;49.710;8.842;2023-04-27T06:02:35;99275.66;;;6.95;90.99
52927;BME280;40783;49.710;8.842;2023-04-27T06:05:02;99285.69;;;7.13;88.22
52927;BME280;40783;49.710;8.842;2023-04-27T06:07:35;99281.59;;;7.91;86.76
52927;BME280;40783;49.710;8.842;2023-04-27T06:10:01;99271.66;;;8.52;81.19
52927;BME280;40783;49.710;8.842;2023-04-27T06:12:27;99275.59;;;8.28;81.66
52927;BME280;40783;49.710;8.842;2023-04-27T06:14:54;99279.66;;;8.52;79.82
52927;BME280;40783;49.710;8.842;2023-04-27T06:17:20;99279.34;;;8.94;74.20
52927;BME280;40783;49.710;8.842;2023-04-27T06:19:48;99283.72;;;9.23;74.58
52927;BME280;40783;49.710;8.842;2023-04-27T06:22:14;99281.66;;;9.73;70.91
52927;BME280;40783;49.710;8.842;2023-04-27T06:24:39;99285.09;;;9.83;69.22
52927;BME280;40783;49.710;8.842;2023-04-27T06:27:06;99298.34;;;9.19;72.99
52927;BME280;40783;49.710;8.842;2023-04-27T06:29:31;99295.56;;;9.76;71.88
52927;BME280;40783;49.710;8.842;2023-04-27T06:31:57;99296.88;;;10.27;71.96
52927;BME280;40783;49.710;8.842;2023-04-27T06:34:22;99299.22;;;10.58;72.10
52927;BME280;40783;49.710;8.842;2023-04-27T06:36:47;99300.84;;;9.86;76.31
52927;BME280;40783;49.710;8.842;2023-04-27T06:39:17;99305.97;;;9.70;77.80
52927;BME280;40783;49.710;8.842;2023-04-27T06:41:42;99308.16;;;9.84;77.39
52927;BME280;40783;49.710;8.842;2023-04-27T06:44:07;99315.19;;;9.85;75.18
52927;BME280;40783;49.710;8.842;2023-04-27T06:46:33;99321.91;;;9.89;69.97
52927;BME280;40783;49.710;8.842;2023-04-27T06:48:58;99319.03;;;10.01;68.61
52927;BME280;40783;49.710;8.842;2023-04-27T06:51:23;99313.50;;;9.84;71.56
52927;BME280;40783;49.710;8.842;2023-04-27T06:53:48;99318.22;;;9.34;71.09
52927;BME280;40783;49.710;8.842;2023-04-27T06:56:14;99320.66;;;9.18;71.67
52927;BME280;40783;49.710;8.842;2023-04-27T06:58:41;99320.25;;;9.13;72.62
52927;BME280;40783;49.710;8.842;2023-04-27T07:01:09;99316.66;;;8.94;76.67
52927;BME280;40783;49.710;8.842;2023-04-27T07:03:36;99313.72;;;8.97;76.35
52927;BME280;40783;49.710;8.842;2023-04-27T07:06:04;99323.72;;;8.75;76.84
52927;BME280;40783;49.710;8.842;2023-04-27T07:08:29;99321.13;;;9.03;75.07
52927;BME280;40783;49.710;8.842;2023-04-27T07:10:55;99317.75;;;9.01;77.92
52927;BME280;40783;49.710;8.842;2023-04-27T07:13:20;99318.44;;;9.03;76.22
52927;BME280;40783;49.710;8.842;2023-04-27T07:15:48;99320.91;;;9.62;76.05
52927;BME280;40783;49.710;8.842;2023-04-27T07:18:20;99321.03;;;9.89;73.30
52927;BME280;40783;49.710;8.842;2023-04-27T07:20:47;99326.38;;;10.35;70.52
52927;BME280;40783;49.710;8.842;2023-04-27T07:23:13;99328.59;;;10.39;70.31
52927;BME280;40783;49.710;8.842;2023-04-27T07:25:38;99325.44;;;10.80;70.65
52927;BME280;40783;49.710;8.842;2023-04-27T07:28:04;99323.28;;;9.93;69.27
52927;BME280;40783;49.710;8.842;2023-04-27T07:30:31;99323.91;;;10.51;68.32
52927;BME280;40783;49.710;8.842;2023-04-27T07:33:01;99331.97;;;10.78;68.08
52927;BME280;40783;49.710;8.842;2023-04-27T07:35:28;99324.97;;;11.03;65.49
52927;BME280;40783;49.710;8.842;2023-04-27T07:37:54;99329.69;;;11.09;63.39
52927;BME280;40783;49.710;8.842;2023-04-27T07:40:21;99324.91;;;11.56;63.75
52927;BME280;40783;49.710;8.842;2023-04-27T07:42:48;99317.25;;;11.69;62.49
52927;BME280;40783;49.710;8.842;2023-04-27T07:45:16;99320.34;;;11.91;60.63
52927;BME280;40783;49.710;8.842;2023-04-27T07:47:42;99315.25;;;11.63;55.33
52927;BME280;40783;49.710;8.842;2023-04-27T07:50:09;99309.44;;;11.93;56.42
52927;BME280;40783;49.710;8.842;2023-04-27T07:52:38;99320.41;;;11.99;54.52
52927;BME280;40783;49.710;8.842;2023-04-27T07:55:04;99326.66;;;11.73;56.97
52927;BME280;40783;49.710;8.842;2023-04-27T07:57:32;99312.25;;;11.75;55.78
52927;BME280;40783;49.710;8.842;2023-04-27T07:59:57;99305.84;;;11.67;57.76
52927;BME280;40783;49.710;8.842;2023-04-27T08:02:22;99312.09;;;11.76;56.83
52927;BME280;40783;49.710;8.842;2023-04-27T08:04:48;99321.28;;;11.65;57.53
52927;BME280;40783;49.710;8.842;2023-04-27T08:07:17;99307.75;;;11.75;58.54
52927;BME280;40783;49.710;8.842;2023-04-27T08:09:44;99318.97;;;11.79;58.48
52927;BME280;40783;49.710;8.842;2023-04-27T08:12:12;99320.66;;;11.80;60.86
52927;BME280;40783;49.710;8.842;2023-04-27T08:14:39;99315.50;;;11.95;61.18
52927;BME280;40783;49.710;8.842;2023-04-27T08:17:05;99320.72;;;11.96;61.22
52927;BME280;40783;49.710;8.842;2023-04-27T08:19:30;99312.72;;;12.05;60.63
52927;BME280;40783;49.710;8.842;2023-04-27T08:21:59;99305.34;;;12.07;61.56
52927;BME280;40783;49.710;8.842;2023-04-27T08:24:25;99313.75;;;11.69;60.10
52927;BME280;40783;49.710;8.842;2023-04-27T08:26:50;99314.63;;;11.86;61.93
52927;BME280;40783;49.710;8.842;2023-04-27T08:29:15;99301.69;;;12.08;59.53
52927;BME280;40783;49.710;8.842;2023-04-27T08:31:40;99293.66;;;12.16;58.73
52927;BME280;40783;49.710;8.842;2023-04-27T08:34:06;99297.31;;;12.07;58.22
52927;BME280;40783;49.710;8.842;2023-04-27T08:36:31;99286.28;;;12.18;57.76
52927;BME280;40783;49.710;8.842;2023-04-27T08:38:57;99298.66;;;12.11;56.84
52927;BME280;40783;49.710;8.842;2023-04-27T08:41:24;99294.50;;;12.58;62.48
52927;BME280;40783;49.710;8.842;2023-04-27T08:43:51;99284.28;;;12.53;55.76
52927;BME280;40783;49.710;8.842;2023-04-27T08:46:23;99284.78;;;12.57;57.76
52927;BME280;40783;49.710;8.842;2023-04-27T08:48:52;99282.59;;;12.52;56.49
52927;BME280;40783;49.710;8.842;2023-04-27T08:51:18;99277.25;;;12.52;56.89
52927;BME280;40783;49.710;8.842;2023-04-27T08:53:49;99279.41;;;12.49;57.59
52927;BME280;40783;49.710;8.842;2023-04-27T08:56:18;99268.50;;;12.34;56.79
52927;BME280;40783;49.710;8.842;2023-04-27T08:58:43;99280.91;;;12.26;55.76
52927;BME280;40783;49.710;8.842;2023-04-27T09:01:09;99276.88;;;12.30;56.97
52927;BME280;40783;49.710;8.842;2023-04-27T09:03:36;99278.44;;;12.41;57.59
52927;BME280;40783;49.710;8.842;2023-04-27T09:06:03;99283.94;;;12.15;56.64
52927;BME280;40783;49.710;8.842;2023-04-27T09:08:28;99282.41;;;12.12;56.74
52927;BME280;40783;49.710;8.842;2023-04-27T09:10:54;99281.91;;;12.25;55.08
52927;BME280;40783;49.710;8.842;2023-04-27T09:13:21;99284.59;;;12.17;56.49
52927;BME280;40783;49.710;8.842;2023-04-27T09:15:48;99283.28;;;12.46;55.51
52927;BME280;40783;49.710;8.842;2023-04-27T09:20:42;99280.19;;;13.07;53.57
52927;BME280;40783;49.710;8.842;2023-04-27T09:23:08;99283.47;;;13.26;51.06
52927;BME280;40783;49.710;8.842;2023-04-27T09:25:33;99281.66;;;13.18;51.47
52927;BME280;40783;49.710;8.842;2023-04-27T09:28:00;99278.97;;;13.26;49.98
52927;BME280;40783;49.710;8.842;2023-04-27T09:30:25;99267.09;;;13.12;50.18
52927;BME280;40783;49.710;8.842;2023-04-27T09:33:00;99277.94;;;13.35;52.74
52927;BME280;40783;49.710;8.842;2023-04-27T09:35:30;99273.72;;;13.33;52.32
52927;BME280;40783;49.710;8.842;2023-04-27T09:37:59;99269.03;;;13.27;52.94
52927;BME280;40783;49.710;8.842;2023-04-27T09:40:28;99273.38;;;13.36;53.52
52927;BME280;40783;49.710;8.842;2023-04-27T09:42:59;99264.53;;;13.27;51.83
52927;BME280;40783;49.710;8.842;2023-04-27T09:45:27;99270.78;;;13.11;50.96
52927;BME280;40783;49.710;8.842;2023-04-27T09:47:52;99274.00;;;12.98;50.27
52927;BME280;40783;49.710;8.842;2023-04-27T09:50:23;99266.47;;;12.77;51.96
52927;BME280;40783;49.710;8.842;2023-04-27T09:52:48;99260.47;;;12.67;52.60
52927;BME280;40783;49.710;8.842;2023-04-27T09:55:24;99256.06;;;12.82;52.08
52927;BME280;40783;49.710;8.842;2023-04-27T10:08:49;99261.03;;;13.18;52.45
52927;BME280;40783;49.710;8.842;2023-04-27T10:11:18;99261.09;;;13.02;54.67
52927;BME280;40783;49.710;8.842;2023-04-27T10:13:53;99255.38;;;13.05;51.82
52927;BME280;40783;49.710;8.842;2023-04-27T10:16:20;99250.69;;;12.99;51.67
52927;BME280;40783;49.710;8.842;2023-04-27T10:19:00;99253.00;;;13.10;52.17
52927;BME280;40783;49.710;8.842;2023-04-27T10:21:32;99257.69;;;13.16;54.01
52927;BME280;40783;49.710;8.842;2023-04-27T10:24:06;99249.63;;;13.25;53.08
52927;BME280;40783;49.710;8.842;2023-04-27T10:26:35;99249.63;;;13.16;53.33
52927;BME280;40783;49.710;8.842;2023-04-27T10:29:09;99254.44;;;13.38;52.31
52927;BME280;40783;49.710;8.842;2023-04-27T10:31:42;99253.59;;;13.29;50.58
52927;BME280;40783;49.710;8.842;2023-04-27T10:34:09;99252.56;;;13.46;51.17
52927;BME280;40783;49.710;8.842;2023-04-27T10:36:38;99247.22;;;13.30;52.11
52927;BME280;40783;49.710;8.842;2023-04-27T10:39:19;99253.22;;;13.40;52.29
52927;BME280;40783;49.710;8.842;2023-04-27T10:41:54;99249.47;;;13.66;51.84
52927;BME280;40783;49.710;8.842;2023-04-27T10:44:31;99248.91;;;13.71;54.19
52927;BME280;40783;49.710;8.842;2023-04-27T10:46:58;99252.31;;;13.96;53.55
52927;BME280;40783;49.710;8.842;2023-04-27T10:49:27;99244.63;;;13.85;50.95
52927;BME280;40783;49.710;8.842;2023-04-27T10:51:53;99244.19;;;14.04;48.02
52927;BME280;40783;49.710;8.842;2023-04-27T10:54:29;99229.47;;;14.15;47.82
52927;BME280;40783;49.710;8.842;2023-04-27T10:57:06;99227.13;;;14.35;48.85
52927;BME280;40783;49.710;8.842;2023-04-27T10:59:35;99233.41;;;14.51;49.27
52927;BME280;40783;49.710;8.842;2023-04-27T11:02:11;99231.13;;;14.39;46.99
52927;BME280;40783;49.710;8.842;2023-04-27T11:04:41;99229.88;;;14.50;52.00
52927;BME280;40783;49.710;8.842;2023-04-27T11:07:07;99229.38;;;14.85;52.66
52927;BME280;40783;49.710;8.842;2023-04-27T11:09:37;99236.72;;;14.76;50.11
52927;BME280;40783;49.710;8.842;2023-04-27T11:12:05;99224.88;;;14.62;48.54
52927;BME280;40783;49.710;8.842;2023-04-27T11:14:33;99218.91;;;14.75;47.05
52927;BME280;40783;49.710;8.842;2023-04-27T11:16:59;99223.34;;;14.45;47.79
52927;BME280;40783;49.710;8.842;2023-04-27T11:19:24;99216.59;;;14.49;49.34
52927;BME280;40783;49.710;8.842;2023-04-27T11:21:50;99216.94;;;14.84;49.18
52927;BME280;40783;49.710;8.842;2023-04-27T11:24:15;99214.53;;;14.89;48.30
52927;BME280;40783;49.710;8.842;2023-04-27T11:26:41;99216.59;;;15.17;50.70
52927;BME280;40783;49.710;8.842;2023-04-27T11:29:09;99216.84;;;15.37;50.19
52927;BME280;40783;49.710;8.842;2023-04-27T11:34:03;99219.06;;;15.49;49.75
52927;BME280;40783;49.710;8.842;2023-04-27T11:36:29;99216.66;;;15.39;48.93
52927;BME280;40783;49.710;8.842;2023-04-27T11:38:57;99221.19;;;15.53;46.70
52927;BME280;40783;49.710;8.842;2023-04-27T11:41:35;99217.56;;;15.61;48.05
52927;BME280;40783;49.710;8.842;2023-04-27T11:44:05;99207.50;;;15.70;45.58
52927;BME280;40783;49.710;8.842;2023-04-27T11:46:33;99200.31;;;15.77;48.79
52927;BME280;40783;49.710;8.842;2023-04-27T11:49:01;99216.41;;;15.70;45.58
52927;BME280;40783;49.710;8.842;2023-04-27T11:51:31;99205.41;;;15.87;48.72
52927;BME280;40783;49.710;8.842;2023-04-27T11:54:03;99202.44;;;15.82;48.06
52927;BME280;40783;49.710;8.842;2023-04-27T11:56:38;99207.53;;;15.92;45.62
52927;BME280;40783;49.710;8.842;2023-04-27T11:59:16;99201.63;;;15.81;43.68
52927;BME280;40783;49.710;8.842;2023-04-27T12:01:44;99196.38;;;15.95;44.57
52927;BME280;40783;49.710;8.842;2023-04-27T12:04:12;99194.06;;;15.92;47.62
52927;BME280;40783;49.710;8.842;2023-04-27T12:06:37;99190.19;;;16.01;44.62
52927;BME280;40783;49.710;8.842;2023-04-27T12:09:03;99194.78;;;16.00;44.76
52927;BME280;40783;49.710;8.842;2023-04-27T12:11:31;99195.72;;;16.14;47.08
52927;BME280;40783;49.710;8.842;2023-04-27T12:13:57;99188.97;;;16.25;45.12
52927;BME280;40783;49.710;8.842;2023-04-27T12:16:27;99190.06;;;16.31;43.66
52927;BME280;40783;49.710;8.842;2023-04-27T12:18:58;99191.81;;;16.45;43.98
52927;BME280;40783;49.710;8.842;2023-04-27T12:21:25;99178.97;;;16.47;45.81
52927;BME280;40783;49.710;8.842;2023-04-27T12:23:50;99182.63;;;16.61;46.42
52927;BME280;40783;49.710;8.842;2023-04-27T12:26:16;99179.53;;;16.36;45.38
52927;BME280;40783;49.710;8.842;2023-04-27T12:28:42;99184.88;;;16.58;45.76
52927;BME280;40783;49.710;8.842;2023-04-27T12:31:07;99181.03;;;16.45;46.13
52927;BME280;40783;49.710;8.842;2023-04-27T12:33:37;99171.63;;;16.35;44.83
52927;BME280;40783;49.710;8.842;2023-04-27T12:36:02;99167.72;;;16.37;44.47
52927;BME280;40783;49.710;8.842;2023-04-27T12:38:27;99174.59;;;16.18;44.87
52927;BME280;40783;49.710;8.842;2023-04-27T12:40:57;99162.13;;;16.45;46.26
52927;BME280;40783;49.710;8.842;2023-04-27T12:43:26;99165.31;;;16.56;46.74
52927;BME280;40783;49.710;8.842;2023-04-27T12:45:56;99166.47;;;16.40;42.37
52927;BME280;40783;49.710;8.842;2023-04-27T12:48:21;99164.50;;;16.05;43.69
52927;BME280;40783;49.710;8.842;2023-04-27T12:50:47;99156.78;;;16.24;42.84
52927;BME280;40783;49.710;8.842;2023-04-27T12:53:12;99156.69;;;16.10;43.61
52927;BME280;40783;49.710;8.842;2023-04-27T12:55:38;99161.91;;;16.40;45.38
52927;BME280;40783;49.710;8.842;2023-04-27T12:58:03;99149.59;;;16.31;42.39
52927;BME280;40783;49.710;8.842;2023-04-27T13:00:31;99154.75;;;16.26;45.21
52927;BME280;40783;49.710;8.842;2023-04-27T13:02:58;99155.25;;;15.93;43.49
52927;BME280;40783;49.710;8.842;2023-04-27T13:05:26;99155.00;;;16.09;43.42
52927;BME280;40783;49.710;8.842;2023-04-27T13:07:51;99144.59;;;16.06;42.74
52927;BME280;40783;49.710;8.842;2023-04-27T13:10:16;99152.19;;;16.17;45.22
52927;BME280;40783;49.710;8.842;2023-04-27T13:12:44;99153.19;;;16.38;48.62
52927;BME280;40783;49.710;8.842;2023-04-27T13:15:10;99144.50;;;16.50;46.66
52927;BME280;40783;49.710;8.842;2023-04-27T13:17:35;99148.25;;;16.49;47.46
52927;BME280;40783;49.710;8.842;2023-04-27T13:20:01;99145.38;;;16.50;46.11
52927;BME280;40783;49.710;8.842;2023-04-27T13:22:26;99144.22;;;16.66;45.26
52927;BME280;40783;49.710;8.842;2023-04-27T13:24:52;99143.16;;;16.32;44.15
52927;BME280;40783;49.710;8.842;2023-04-27T13:27:19;99137.69;;;16.25;45.06
52927;BME280;40783;49.710;8.842;2023-04-27T13:29:46;99142.81;;;16.42;47.77
52927;BME280;40783;49.710;8.842;2023-04-27T13:32:15;99139.59;;;16.60;47.07
52927;BME280;40783;49.710;8.842;2023-04-27T13:34:40;99133.00;;;16.63;44.90
52927;BME280;40783;49.710;8.842;2023-04-27T13:37:06;99137.75;;;16.60;46.05
52927;BME280;40783;49.710;8.842;2023-04-27T13:39:34;99135.75;;;16.41;42.98
52927;BME280;40783;49.710;8.842;2023-04-27T13:42:01;99130.38;;;16.47;43.37
52927;BME280;40783;49.710;8.842;2023-04-27T13:44:30;99132.50;;;16.24;42.62
52927;BME280;40783;49.710;8.842;2023-04-27T13:46:57;99127.22;;;16.37;46.64
52927;BME280;40783;49.710;8.842;2023-04-27T13:49:31;99138.09;;;16.22;44.39
52927;BME280;40783;49.710;8.842;2023-04-27T13:51:57;99130.81;;;15.94;45.91
52927;BME280;40783;49.710;8.842;2023-04-27T13:54:22;99129.44;;;15.83;44.46
52927;BME280;40783;49.710;8.842;2023-04-27T13:56:48;99142.00;;;15.91;44.94
52927;BME280;40783;49.710;8.842;2023-04-27T13:59:15;99139.09;;;15.93;45.05
52927;BME280;40783;49.710;8.842;2023-04-27T14:01:41;99135.75;;;15.91;44.20
52927;BME280;40783;49.710;8.842;2023-04-27T14:04:06;99137.66;;;16.19;48.75
52927;BME280;40783;49.710;8.842;2023-04-27T14:06:32;99131.75;;;16.08;44.83
52927;BME280;40783;49.710;8.842;2023-04-27T14:09:00;99131.09;;;16.28;47.18
52927;BME280;40783;49.710;8.842;2023-04-27T14:11:27;99130.63;;;16.24;45.54
52927;BME280;40783;49.710;8.842;2023-04-27T14:13:53;99135.72;;;16.34;45.74